Terminal Aerodrome Forecast
Issued by NWS

Home | Current Version | Previous Version | Text Only | Print | Product List | Glossary On
Versions: 1 2 3 4 5 6 7 8 9 10 11 12
000
FTUS45 KABQ 271700
TAFAEG
TAF
KAEG 271720Z 2718/2818 29007KT P6SM FEW150
     FM272100 31011G27KT P6SM SKC
     FM280200 30007KT P6SM SKC
     FM281400 VRB04KT P6SM SKC=

USA.gov is the U.S. government's official web portal to all federal, state and local government web resources and services.